Time;durP1;ratioP1;P1;durP2;ratioP2;P2;SDS_P1;SDS_P2;PMS_P1;PMS_P2;Temp;Humidity;BMP_temperature;BMP_pressure;BME280_temperature;BME280_humidity;BME280_pressure;Samples;Min_cycle;Max_cycle;Signal;HPM_P1;HPM_P2
2021/05/10 00:01:46;;;;;;;11.38;7.75;;;21.40;72.20;;;;;;5073869;28;20033;-60
2021/05/10 00:04:14;;;;;;;11.32;8.07;;;21.30;72.10;;;;;;5073915;28;20036;-60
2021/05/10 00:06:40;;;;;;;12.02;7.75;;;21.30;72.10;;;;;;5073131;28;20028;-60
2021/05/10 00:09:06;;;;;;;12.00;7.82;;;21.20;72.10;;;;;;5073484;28;20043;-60
2021/05/10 00:11:34;;;;;;;11.88;7.63;;;21.30;72.20;;;;;;5073779;28;20070;-59
2021/05/10 00:14:05;;;;;;;11.15;7.93;;;21.20;72.10;;;;;;5073038;28;20091;-59
2021/05/10 00:16:31;;;;;;;13.25;7.97;;;21.20;72.10;;;;;;5073617;28;20060;-59
2021/05/10 00:18:56;;;;;;;11.98;8.32;;;21.20;72.10;;;;;;5073797;28;20045;-59
2021/05/10 00:21:22;;;;;;;13.25;7.53;;;21.20;72.10;;;;;;5072357;28;20028;-59
2021/05/10 00:23:48;;;;;;;12.50;7.78;;;21.10;72.10;;;;;;5073768;28;20527;-60
2021/05/10 00:26:13;;;;;;;16.48;8.55;;;21.10;72.10;;;;;;5072067;28;20438;-60
2021/05/10 00:28:39;;;;;;;13.00;7.50;;;21.10;72.10;;;;;;5072931;28;20042;-60
2021/05/10 00:31:05;;;;;;;16.52;8.10;;;21.10;72.10;;;;;;5073300;28;20126;-60
2021/05/10 00:33:30;;;;;;;10.00;7.32;;;21.10;72.00;;;;;;5073313;28;20035;-60
2021/05/10 00:35:56;;;;;;;15.52;8.25;;;21.00;72.00;;;;;;5072759;28;20090;-60
2021/05/10 00:38:22;;;;;;;14.65;8.32;;;21.10;72.00;;;;;;5073038;28;20021;-59
2021/05/10 00:40:47;;;;;;;13.57;8.00;;;21.00;72.00;;;;;;5073486;28;20056;-60
2021/05/10 00:43:13;;;;;;;14.02;7.93;;;21.00;72.20;;;;;;5072275;28;20476;-60
2021/05/10 00:45:39;;;;;;;12.13;7.47;;;21.00;72.10;;;;;;5073065;28;20075;-60
2021/05/10 00:48:05;;;;;;;13.88;7.55;;;21.00;72.20;;;;;;5072866;28;20037;-59
2021/05/10 00:50:31;;;;;;;14.48;8.18;;;20.90;72.40;;;;;;5072598;28;20085;-59
2021/05/10 00:52:57;;;;;;;13.48;7.53;;;20.90;72.40;;;;;;5072720;28;20059;-59
2021/05/10 00:55:23;;;;;;;11.07;7.80;;;20.90;72.30;;;;;;5072806;28;20032;-60
2021/05/10 00:57:57;;;;;;;13.95;7.95;;;20.90;72.40;;;;;;5072097;28;20382;-60
2021/05/10 01:00:23;;;;;;;13.23;8.32;;;20.80;72.40;;;;;;5070260;28;20395;-59
2021/05/10 01:02:49;;;;;;;16.70;8.30;;;20.80;72.40;;;;;;5071138;28;20033;-59
2021/05/10 01:05:16;;;;;;;11.48;7.03;;;20.80;72.40;;;;;;5068309;28;20044;-59
2021/05/10 01:07:42;;;;;;;14.38;7.68;;;20.80;72.60;;;;;;5069542;28;20029;-59
2021/05/10 01:10:11;;;;;;;10.60;7.43;;;20.80;73.10;;;;;;5072212;28;20032;-59
2021/05/10 01:12:37;;;;;;;13.63;7.68;;;20.70;73.10;;;;;;5072601;28;20364;-62
2021/05/10 01:15:07;;;;;;;10.85;6.53;;;20.70;73.70;;;;;;5072585;28;20034;-59
2021/05/10 01:17:34;;;;;;;15.25;7.78;;;20.70;73.30;;;;;;5072139;28;20032;-60
2021/05/10 01:20:00;;;;;;;18.23;8.40;;;20.70;73.30;;;;;;5071290;28;20038;-60
2021/05/10 01:22:40;;;;;;;16.33;7.85;;;20.60;73.10;;;;;;5072540;28;20039;-59
2021/05/10 01:25:07;;;;;;;15.07;8.43;;;20.60;72.80;;;;;;5072067;28;20036;-60
2021/05/10 01:27:34;;;;;;;14.02;8.68;;;20.60;72.50;;;;;;5072403;28;20074;-59
2021/05/10 01:30:00;;;;;;;13.80;8.85;;;20.60;72.30;;;;;;5072742;28;20036;-59
2021/05/10 01:32:25;;;;;;;12.82;9.40;;;20.60;72.20;;;;;;5070632;28;20028;-60
2021/05/10 01:34:51;;;;;;;20.85;8.52;;;20.50;72.20;;;;;;5061065;28;20086;-59
2021/05/10 01:37:17;;;;;;;16.00;8.80;;;20.50;72.40;;;;;;5072440;28;20032;-60
2021/05/10 01:39:42;;;;;;;14.30;8.50;;;20.50;72.10;;;;;;5071817;28;20024;-60
2021/05/10 01:42:08;;;;;;;18.55;9.73;;;20.40;71.90;;;;;;5072558;28;20060;-60
2021/05/10 01:44:34;;;;;;;16.13;9.57;;;20.40;71.80;;;;;;5072555;28;20430;-59
2021/05/10 01:46:59;;;;;;;21.65;8.90;;;20.40;71.60;;;;;;5071876;28;20037;-60
2021/05/10 01:49:25;;;;;;;14.10;9.02;;;20.40;71.60;;;;;;5072307;28;20032;-60
2021/05/10 01:51:50;;;;;;;13.93;8.98;;;20.30;71.60;;;;;;5072105;28;20032;-59
2021/05/10 01:54:19;;;;;;;21.70;9.20;;;20.40;71.60;;;;;;5071687;28;20072;-60
2021/05/10 01:56:46;;;;;;;11.23;8.10;;;20.30;71.40;;;;;;5072306;28;20045;-60
2021/05/10 01:59:12;;;;;;;12.43;8.35;;;20.30;71.50;;;;;;5071713;28;20135;-59
2021/05/10 02:01:38;;;;;;;17.25;9.10;;;20.30;71.50;;;;;;5072211;28;20064;-59
2021/05/10 02:04:03;;;;;;;12.18;8.55;;;20.20;71.30;;;;;;5072266;28;20067;-59
2021/05/10 02:06:29;;;;;;;15.25;9.20;;;20.20;71.20;;;;;;5071246;28;20085;-59
2021/05/10 02:08:55;;;;;;;15.77;8.38;;;20.20;71.30;;;;;;5072015;28;20041;-59
2021/05/10 02:11:20;;;;;;;13.90;7.50;;;20.20;71.30;;;;;;5072324;28;20020;-59
2021/05/10 02:13:46;;;;;;;12.35;8.38;;;20.20;71.40;;;;;;5057928;28;20032;-59
2021/05/10 02:16:12;;;;;;;13.13;7.47;;;20.10;71.60;;;;;;5072313;28;20399;-59
2021/05/10 02:18:38;;;;;;;10.85;6.90;;;20.10;71.90;;;;;;5071996;28;20032;-59
2021/05/10 02:21:04;;;;;;;15.02;8.13;;;20.00;72.20;;;;;;5071488;28;20059;-59
2021/05/10 02:23:32;;;;;;;14.77;7.07;;;20.00;72.40;;;;;;5071819;28;20399;-60
2021/05/10 02:25:59;;;;;;;13.32;7.55;;;20.00;72.50;;;;;;5072073;28;20111;-59
2021/05/10 02:28:26;;;;;;;11.93;7.88;;;20.00;72.60;;;;;;5071394;28;20032;-59
2021/05/10 02:30:54;;;;;;;13.88;7.88;;;19.90;72.50;;;;;;5072152;28;20119;-59
2021/05/10 02:33:23;;;;;;;12.30;7.47;;;19.90;72.50;;;;;;5072151;28;20059;-59
2021/05/10 02:35:51;;;;;;;18.00;9.68;;;19.90;72.60;;;;;;5071177;28;20146;-60
2021/05/10 02:38:18;;;;;;;14.30;8.15;;;19.90;72.70;;;;;;5071854;28;20094;-60
2021/05/10 02:40:44;;;;;;;13.40;7.82;;;19.90;72.70;;;;;;5071640;28;20446;-59
2021/05/10 02:43:10;;;;;;;13.45;8.70;;;19.80;72.70;;;;;;5071962;28;20029;-59
2021/05/10 02:45:36;;;;;;;19.33;9.68;;;19.90;72.90;;;;;;5075577;28;20047;-60
2021/05/10 02:48:03;;;;;;;15.65;9.40;;;19.80;72.90;;;;;;5075503;28;20040;-60
2021/05/10 02:50:29;;;;;;;13.77;8.60;;;19.80;73.00;;;;;;5074061;28;20081;-59
2021/05/10 02:52:55;;;;;;;12.77;8.50;;;19.80;73.10;;;;;;5074982;28;20041;-60
2021/05/10 02:55:21;;;;;;;16.27;9.70;;;19.80;73.20;;;;;;5074658;28;20043;-60
2021/05/10 02:57:48;;;;;;;18.08;9.00;;;19.70;73.30;;;;;;5075181;28;20025;-59
2021/05/10 03:00:20;;;;;;;12.52;9.00;;;19.70;73.40;;;;;;5075366;28;20029;-59
2021/05/10 03:02:46;;;;;;;13.38;9.48;;;19.70;73.60;;;;;;5074404;28;20024;-59
2021/05/10 03:05:13;;;;;;;15.30;8.50;;;19.70;73.60;;;;;;5075134;28;20163;-59
2021/05/10 03:07:40;;;;;;;16.63;9.38;;;19.70;73.70;;;;;;5074817;28;20028;-59
2021/05/10 03:10:12;;;;;;;15.13;10.00;;;19.70;73.80;;;;;;5074352;28;20046;-60
2021/05/10 03:12:38;;;;;;;13.13;9.48;;;19.70;73.90;;;;;;5075146;28;20490;-60
2021/05/10 03:15:07;;;;;;;16.00;9.43;;;19.60;73.90;;;;;;5074832;28;20044;-59
2021/05/10 03:17:33;;;;;;;16.10;9.48;;;19.70;74.00;;;;;;5074330;28;20149;-60
2021/05/10 03:19:58;;;;;;;12.23;8.73;;;19.70;74.10;;;;;;5074498;28;20112;-59
2021/05/10 03:22:24;;;;;;;15.13;9.02;;;19.60;74.10;;;;;;5075040;28;20031;-59
2021/05/10 03:24:50;;;;;;;13.73;8.98;;;19.60;74.20;;;;;;5074283;28;20029;-59
2021/05/10 03:27:16;;;;;;;20.10;9.35;;;19.60;74.30;;;;;;5074497;28;20055;-60
2021/05/10 03:29:41;;;;;;;15.05;9.00;;;19.60;74.40;;;;;;5074850;28;20033;-60
2021/05/10 03:32:07;;;;;;;13.25;8.63;;;19.60;74.50;;;;;;5073645;28;20028;-59
2021/05/10 03:34:33;;;;;;;14.35;9.15;;;19.60;74.50;;;;;;5074490;28;20021;-59
2021/05/10 03:36:58;;;;;;;14.73;9.68;;;19.60;74.60;;;;;;5074666;28;20089;-60
2021/05/10 03:39:24;;;;;;;12.75;8.45;;;19.60;74.70;;;;;;5074033;28;20035;-59
2021/05/10 03:41:50;;;;;;;19.58;8.85;;;19.50;74.70;;;;;;5073384;28;20037;-59
2021/05/10 03:44:15;;;;;;;12.00;9.02;;;19.50;74.80;;;;;;5074266;28;20487;-59
2021/05/10 03:46:41;;;;;;;16.70;8.52;;;19.50;74.90;;;;;;5073611;28;20480;-59
2021/05/10 03:49:06;;;;;;;15.50;9.35;;;19.50;74.90;;;;;;5074112;28;20028;-59
2021/05/10 03:51:32;;;;;;;12.77;8.20;;;19.50;75.00;;;;;;5073690;28;20037;-60
2021/05/10 03:53:58;;;;;;;13.93;7.90;;;19.50;75.10;;;;;;5073873;28;20110;-60
2021/05/10 03:56:24;;;;;;;12.50;8.30;;;19.50;75.20;;;;;;5073181;28;20491;-59
2021/05/10 03:58:49;;;;;;;13.07;8.10;;;19.50;75.30;;;;;;5073384;28;20021;-60
2021/05/10 04:01:15;;;;;;;13.85;7.38;;;19.50;75.30;;;;;;5073971;28;20073;-61
2021/05/10 04:03:50;;;;;;;11.68;7.10;;;19.40;75.30;;;;;;5074065;28;20026;-59
2021/05/10 04:06:48;;;;;;;11.27;6.93;;;19.40;75.40;;;;;;5072992;28;20505;-59
2021/05/10 04:14:19;;;;;;;12.32;4.68;;;19.40;76.00;;;;;;5073379;28;20112;-59
2021/05/10 04:16:45;;;;;;;11.73;7.97;;;19.40;75.90;;;;;;5073776;28;20484;-59
2021/05/10 04:19:10;;;;;;;19.67;8.52;;;19.40;76.30;;;;;;5073684;28;20120;-60
2021/05/10 04:21:36;;;;;;;9.63;5.22;;;19.40;76.60;;;;;;5072803;28;20063;-59
2021/05/10 04:24:02;;;;;;;13.82;7.72;;;19.30;76.40;;;;;;5073644;28;20064;-59
2021/05/10 04:26:28;;;;;;;8.80;5.55;;;19.30;76.60;;;;;;5073530;28;20112;-60
2021/05/10 04:28:53;;;;;;;12.88;7.55;;;19.30;77.00;;;;;;5072637;28;20099;-59
2021/05/10 04:31:19;;;;;;;11.30;7.57;;;19.20;77.30;;;;;;5073673;28;20037;-59
2021/05/10 04:33:45;;;;;;;10.07;6.72;;;19.20;77.80;;;;;;5072620;28;20024;-60
2021/05/10 04:36:10;;;;;;;11.65;6.22;;;19.10;77.60;;;;;;5073394;28;20407;-60
2021/05/10 04:38:40;;;;;;;10.48;7.45;;;19.10;77.50;;;;;;5073230;28;20115;-59
2021/05/10 04:41:06;;;;;;;17.83;9.25;;;19.20;77.50;;;;;;5072585;28;20047;-60
2021/05/10 04:43:32;;;;;;;15.45;8.77;;;19.20;77.60;;;;;;5073113;28;20036;-59
2021/05/10 04:46:00;;;;;;;14.27;9.30;;;19.20;77.80;;;;;;5073118;28;20063;-59
2021/05/10 04:48:29;;;;;;;13.23;8.10;;;19.20;78.00;;;;;;5072660;28;20032;-59
2021/05/10 04:50:56;;;;;;;15.30;8.80;;;19.20;78.00;;;;;;5073013;28;20106;-59
2021/05/10 04:53:22;;;;;;;14.18;8.70;;;19.20;78.00;;;;;;5073079;28;20056;-60
2021/05/10 04:55:48;;;;;;;16.38;8.85;;;19.30;78.10;;;;;;5072129;28;20078;-59
2021/05/10 04:58:14;;;;;;;12.30;8.43;;;19.30;78.20;;;;;;5073110;28;20082;-59
2021/05/10 05:00:40;;;;;;;13.55;8.85;;;19.30;78.40;;;;;;5073025;28;20501;-60
2021/05/10 05:03:05;;;;;;;15.27;8.43;;;19.30;78.50;;;;;;5072123;28;20075;-59
2021/05/10 05:05:32;;;;;;;15.10;8.38;;;19.30;78.50;;;;;;5072780;28;20056;-59
2021/05/10 05:07:58;;;;;;;12.88;7.32;;;19.30;78.50;;;;;;5072484;28;20082;-59
2021/05/10 05:10:23;;;;;;;11.27;7.45;;;19.40;78.10;;;;;;5071275;28;20036;-60
2021/05/10 05:12:49;;;;;;;14.27;8.52;;;19.40;77.80;;;;;;5066944;28;20024;-60
2021/05/10 05:15:16;;;;;;;11.52;7.88;;;19.40;77.70;;;;;;5072211;28;20471;-60
2021/05/10 05:17:41;;;;;;;13.38;7.05;;;19.30;77.70;;;;;;5071544;28;20020;-60
2021/05/10 05:20:09;;;;;;;12.65;8.05;;;19.40;77.70;;;;;;5072596;28;20028;-60
2021/05/10 05:22:35;;;;;;;14.27;7.90;;;19.40;78.00;;;;;;5070896;28;20025;-59
2021/05/10 05:25:05;;;;;;;11.85;7.85;;;19.40;78.10;;;;;;5070015;28;20028;-59
2021/05/10 05:27:31;;;;;;;12.13;7.20;;;19.40;78.00;;;;;;5068221;28;20032;-60
2021/05/10 05:29:56;;;;;;;11.77;7.03;;;19.40;77.80;;;;;;5070009;28;20044;-60
2021/05/10 05:32:23;;;;;;;13.68;6.35;;;19.40;77.70;;;;;;5070429;28;20043;-59
2021/05/10 05:34:49;;;;;;;8.82;6.45;;;19.40;77.80;;;;;;5068583;28;20017;-59
2021/05/10 05:37:15;;;;;;;12.55;6.82;;;19.40;77.90;;;;;;5067701;28;20033;-59
2021/05/10 05:39:41;;;;;;;9.57;6.72;;;19.40;77.80;;;;;;5068982;28;20082;-59
2021/05/10 05:42:07;;;;;;;12.88;7.35;;;19.40;77.90;;;;;;5070264;28;20035;-60
2021/05/10 05:44:35;;;;;;;15.27;6.57;;;19.40;78.10;;;;;;5070446;28;20032;-60
2021/05/10 05:47:03;;;;;;;13.05;7.18;;;19.40;78.10;;;;;;5070921;28;20103;-59
2021/05/10 05:49:31;;;;;;;11.80;6.68;;;19.40;78.10;;;;;;5070486;28;20170;-59
2021/05/10 05:51:57;;;;;;;14.00;6.25;;;19.40;78.00;;;;;;5069806;28;20024;-60
2021/05/10 05:54:23;;;;;;;13.68;5.90;;;19.50;78.00;;;;;;5068246;28;20040;-60
2021/05/10 05:56:51;;;;;;;8.98;5.90;;;19.50;77.80;;;;;;5067576;28;20032;-60
2021/05/10 05:59:18;;;;;;;14.18;6.55;;;19.50;77.70;;;;;;5067875;28;20020;-60
2021/05/10 06:01:44;;;;;;;9.68;5.40;;;19.50;77.60;;;;;;5068485;28;20040;-59
2021/05/10 06:04:10;;;;;;;11.38;5.35;;;19.50;77.50;;;;;;5068794;28;20025;-60
2021/05/10 06:06:36;;;;;;;9.43;5.10;;;19.50;77.70;;;;;;5069429;28;20498;-60
2021/05/10 06:09:06;;;;;;;6.70;3.80;;;19.60;77.80;;;;;;5070598;28;20032;-60
2021/05/10 06:11:31;;;;;;;7.07;4.28;;;19.50;77.30;;;;;;5065879;28;20392;-60
2021/05/10 06:13:57;;;;;;;11.75;4.03;;;19.60;77.20;;;;;;5071329;28;20069;-61
2021/05/10 06:16:29;;;;;;;7.88;3.58;;;19.60;77.20;;;;;;5070273;28;20047;-60
2021/05/10 06:18:56;;;;;;;4.73;2.63;;;19.60;77.00;;;;;;5071730;28;20050;-60
2021/05/10 06:21:22;;;;;;;3.53;2.08;;;19.70;76.60;;;;;;5067948;28;20044;-60
2021/05/10 06:23:49;;;;;;;6.72;2.53;;;19.70;76.20;;;;;;5075401;28;20025;-60
2021/05/10 06:26:14;;;;;;;5.10;2.10;;;19.70;76.30;;;;;;5074678;28;20062;-60
2021/05/10 06:28:40;;;;;;;5.45;2.10;;;19.80;75.80;;;;;;5075658;28;20029;-61
2021/05/10 06:31:08;;;;;;;10.65;2.13;;;19.80;75.80;;;;;;5075599;28;20033;-61
2021/05/10 06:33:34;;;;;;;7.00;2.33;;;19.90;75.50;;;;;;5074489;28;20467;-60
2021/05/10 06:35:59;;;;;;;3.95;2.05;;;20.00;75.40;;;;;;5074127;28;20075;-61
2021/05/10 06:38:25;;;;;;;6.57;1.83;;;20.00;75.20;;;;;;5075350;28;20060;-61
2021/05/10 06:40:51;;;;;;;4.18;1.52;;;20.10;75.00;;;;;;5074161;28;20060;-61
2021/05/10 06:43:17;;;;;;;10.40;1.70;;;20.00;74.70;;;;;;5075490;28;20024;-61
2021/05/10 06:45:42;;;;;;;3.10;1.52;;;20.10;74.20;;;;;;5075085;28;20040;-61
2021/05/10 06:48:08;;;;;;;10.85;1.70;;;20.10;74.40;;;;;;5074534;28;20025;-61
2021/05/10 06:50:35;;;;;;;1.95;1.50;;;20.10;74.60;;;;;;5084537;28;20502;-61
2021/05/10 06:53:00;;;;;;;5.05;1.63;;;20.10;74.50;;;;;;5075483;28;20044;-60
2021/05/10 06:55:26;;;;;;;5.13;1.48;;;20.10;74.40;;;;;;5074076;28;20548;-61
2021/05/10 06:57:52;;;;;;;2.50;1.08;;;20.10;74.90;;;;;;5074296;28;20178;-60
2021/05/10 07:00:18;;;;;;;1.42;1.17;;;20.00;75.00;;;;;;5074635;28;20032;-60
2021/05/10 07:03:10;;;;;;;4.78;1.33;;;20.00;75.30;;;;;;5064140;28;20051;-59
2021/05/10 07:05:36;;;;;;;5.03;1.08;;;19.90;75.10;;;;;;5063314;28;20124;-61
2021/05/10 07:08:14;;;;;;;8.18;1.15;;;19.80;75.70;;;;;;5068135;28;20128;-61
2021/05/10 07:10:40;;;;;;;1.98;1.33;;;19.80;75.40;;;;;;5070236;28;20479;-60
2021/05/10 07:13:06;;;;;;;4.60;1.23;;;19.80;75.40;;;;;;5073990;28;20494;-60
2021/05/10 07:15:35;;;;;;;2.58;1.20;;;19.80;75.80;;;;;;5066598;28;20032;-60
2021/05/10 07:18:05;;;;;;;3.30;0.82;;;19.80;76.10;;;;;;5073333;28;20051;-60
2021/05/10 07:20:31;;;;;;;0.70;0.70;;;19.70;76.30;;;;;;5074750;28;20020;-62
2021/05/10 07:22:57;;;;;;;1.00;0.82;;;19.80;76.20;;;;;;5074121;28;20056;-61
2021/05/10 07:25:23;;;;;;;1.50;1.13;;;19.80;76.00;;;;;;5072326;28;20436;-61
2021/05/10 07:27:49;;;;;;;1.48;1.17;;;19.70;75.90;;;;;;5072568;28;20060;-61
2021/05/10 07:30:16;;;;;;;6.07;1.40;;;19.70;76.00;;;;;;5071457;28;20037;-62
2021/05/10 07:32:42;;;;;;;0.98;0.60;;;19.70;76.30;;;;;;5072516;28;20025;-63
2021/05/10 07:35:08;;;;;;;1.73;0.63;;;19.70;76.30;;;;;;5071639;28;20555;-61
2021/05/10 07:37:33;;;;;;;2.05;1.20;;;19.70;76.50;;;;;;5069414;28;20056;-61
2021/05/10 07:39:59;;;;;;;1.05;0.88;;;19.70;76.50;;;;;;5072697;28;20060;-61
2021/05/10 07:42:25;;;;;;;1.77;1.13;;;19.70;76.60;;;;;;5068209;28;20102;-60
2021/05/10 07:44:50;;;;;;;2.13;1.23;;;19.60;76.20;;;;;;5071585;28;20025;-60
2021/05/10 07:47:18;;;;;;;6.03;1.65;;;19.70;76.30;;;;;;5066632;28;20040;-60
2021/05/10 07:49:44;;;;;;;2.97;1.45;;;19.70;76.30;;;;;;5069465;28;20043;-61
2021/05/10 07:52:10;;;;;;;1.95;1.20;;;19.70;76.40;;;;;;5070686;28;20550;-61
2021/05/10 07:54:35;;;;;;;1.63;1.08;;;19.60;76.50;;;;;;5069832;28;20079;-60
2021/05/10 07:57:01;;;;;;;1.70;1.50;;;19.60;76.60;;;;;;5071955;28;20051;-61
2021/05/10 07:59:27;;;;;;;3.20;1.15;;;19.60;76.50;;;;;;5072706;28;20360;-60
2021/05/10 08:01:55;;;;;;;1.55;1.10;;;19.50;76.10;;;;;;5073399;28;20029;-60
2021/05/10 08:04:21;;;;;;;1.38;1.02;;;19.50;76.10;;;;;;5071240;28;20025;-61
2021/05/10 08:06:47;;;;;;;0.70;0.70;;;19.50;75.40;;;;;;5072027;28;20035;-60
2021/05/10 08:09:12;;;;;;;1.75;0.90;;;19.40;75.00;;;;;;5068197;28;20117;-62
2021/05/10 08:11:39;;;;;;;1.00;0.80;;;19.30;74.90;;;;;;5072704;28;20028;-60
2021/05/10 08:14:05;;;;;;;1.02;0.60;;;19.30;75.70;;;;;;5072778;28;20029;-61
2021/05/10 08:16:31;;;;;;;1.90;0.85;;;19.40;75.80;;;;;;5072267;28;20039;-60
2021/05/10 08:18:57;;;;;;;1.88;0.63;;;19.40;75.60;;;;;;5072838;28;20020;-61
2021/05/10 08:21:22;;;;;;;1.25;0.75;;;19.40;75.90;;;;;;5073703;28;20036;-60
2021/05/10 08:23:48;;;;;;;0.60;0.60;;;19.40;75.70;;;;;;5073316;28;20028;-61
2021/05/10 08:26:14;;;;;;;1.58;0.63;;;19.40;75.70;;;;;;5072675;28;20036;-61
2021/05/10 08:28:40;;;;;;;0.47;0.40;;;19.40;75.80;;;;;;5073440;28;20068;-61
2021/05/10 08:31:06;;;;;;;0.47;0.47;;;19.50;75.60;;;;;;5073330;28;20413;-60
2021/05/10 08:33:31;;;;;;;0.65;0.63;;;19.50;75.50;;;;;;5072332;28;20032;-61
2021/05/10 08:35:57;;;;;;;1.42;0.65;;;19.50;75.50;;;;;;5073154;28;20103;-60
2021/05/10 08:38:23;;;;;;;0.50;0.50;;;19.60;75.50;;;;;;5067640;28;20090;-61
2021/05/10 08:40:51;;;;;;;0.75;0.68;;;19.50;75.70;;;;;;5065174;28;20393;-61
2021/05/10 08:43:26;;;;;;;0.85;0.63;;;19.60;76.00;;;;;;5065439;28;20119;-61
2021/05/10 08:45:56;;;;;;;0.50;0.50;;;19.60;76.10;;;;;;5072807;28;20035;-61
2021/05/10 08:48:23;;;;;;;0.88;0.52;;;19.70;76.10;;;;;;5072447;28;20029;-60
2021/05/10 08:50:50;;;;;;;2.45;0.70;;;19.70;76.40;;;;;;5072893;28;20475;-60
2021/05/10 08:53:30;;;;;;;1.08;0.90;;;19.70;76.00;;;;;;5072573;28;20098;-60
2021/05/10 08:55:55;;;;;;;0.88;0.55;;;19.60;75.70;;;;;;5072068;28;20487;-61
2021/05/10 08:58:21;;;;;;;1.05;0.95;;;19.60;75.80;;;;;;5072916;28;20024;-61
2021/05/10 09:00:54;;;;;;;1.63;0.80;;;19.60;76.10;;;;;;5072664;28;20064;-61
2021/05/10 09:03:19;;;;;;;1.90;0.70;;;19.60;75.40;;;;;;5072711;28;20052;-60
2021/05/10 09:05:52;;;;;;;0.70;0.60;;;19.50;75.70;;;;;;5072626;28;20109;-61
2021/05/10 09:08:18;;;;;;;1.10;0.68;;;19.60;75.80;;;;;;5072061;28;20032;-61
2021/05/10 09:11:13;;;;;;;0.63;0.40;;;19.60;75.70;;;;;;5072640;28;20498;-61
2021/05/10 09:13:48;;;;;;;0.73;0.73;;;19.60;75.40;;;;;;5071260;28;20033;-61
2021/05/10 09:16:15;;;;;;;1.20;0.98;;;19.70;74.90;;;;;;5071521;28;20066;-61
2021/05/10 09:18:51;;;;;;;2.05;1.20;;;19.70;75.40;;;;;;5062068;28;20063;-60
2021/05/10 09:21:22;;;;;;;3.90;1.00;;;19.70;75.60;;;;;;5071674;28;20036;-60
2021/05/10 09:23:49;;;;;;;0.80;0.80;;;19.80;75.70;;;;;;5071494;28;20482;-61
2021/05/10 09:26:34;;;;;;;2.58;0.90;;;19.80;75.20;;;;;;5072781;28;20067;-61
2021/05/10 09:29:01;;;;;;;2.17;1.10;;;19.80;74.60;;;;;;5071972;28;20032;-60
2021/05/10 09:31:28;;;;;;;3.63;1.20;;;19.80;74.90;;;;;;5070928;28;20043;-58
2021/05/10 09:33:54;;;;;;;0.60;0.60;;;19.90;74.70;;;;;;5060279;28;20383;-58
2021/05/10 09:36:36;;;;;;;2.05;1.05;;;19.90;74.50;;;;;;5070598;28;20040;-58
2021/05/10 09:39:06;;;;;;;0.98;0.90;;;19.90;74.60;;;;;;5070684;28;21408;-59
2021/05/10 09:41:35;;;;;;;1.27;0.75;;;19.90;74.60;;;;;;5070684;28;20483;-59
2021/05/10 09:44:07;;;;;;;1.00;1.00;;;19.90;74.80;;;;;;5070415;28;20043;-59
2021/05/10 09:46:43;;;;;;;2.58;1.27;;;19.90;74.80;;;;;;5072318;28;20036;-59
2021/05/10 09:49:09;;;;;;;1.40;1.00;;;19.90;74.90;;;;;;5070954;28;20487;-59
2021/05/10 09:51:36;;;;;;;2.92;1.23;;;19.90;75.10;;;;;;5066061;28;20024;-59
2021/05/10 09:54:10;;;;;;;0.63;0.63;;;19.90;74.70;;;;;;5077616;28;20059;-60
2021/05/10 09:56:37;;;;;;;4.63;0.90;;;19.90;75.10;;;;;;5080741;28;20051;-60
2021/05/10 09:59:04;;;;;;;0.80;0.80;;;20.00;75.10;;;;;;5075566;28;20020;-60
2021/05/10 10:01:43;;;;;;;1.60;1.08;;;20.00;74.70;;;;;;5064667;28;20119;-59
2021/05/10 10:04:08;;;;;;;1.38;1.02;;;20.00;74.30;;;;;;5062293;28;20040;-59
2021/05/10 10:06:34;;;;;;;1.17;0.95;;;20.00;74.00;;;;;;5075500;28;20033;-59
2021/05/10 10:09:00;;;;;;;1.08;0.90;;;20.00;74.00;;;;;;5076242;28;20395;-59
2021/05/10 10:11:26;;;;;;;0.65;0.63;;;20.10;74.10;;;;;;5075020;28;20036;-59
2021/05/10 10:13:57;;;;;;;2.45;1.23;;;20.00;73.90;;;;;;5075692;28;20029;-59
2021/05/10 10:16:24;;;;;;;1.55;1.20;;;20.00;74.70;;;;;;5075483;28;20040;-59
2021/05/10 10:18:51;;;;;;;3.47;0.80;;;20.00;74.80;;;;;;5075032;28;20474;-59
2021/05/10 10:21:19;;;;;;;1.27;1.17;;;19.90;74.90;;;;;;5076092;28;20429;-59
2021/05/10 10:23:58;;;;;;;1.05;0.50;;;19.90;74.90;;;;;;5075638;28;20027;-58
2021/05/10 10:26:25;;;;;;;0.50;0.50;;;19.80;75.10;;;;;;5074987;28;20119;-59
2021/05/10 10:28:51;;;;;;;0.40;0.40;;;19.70;74.90;;;;;;5072629;28;20052;-59
2021/05/10 10:31:25;;;;;;;0.32;0.32;;;19.60;75.20;;;;;;5075059;28;20091;-59
2021/05/10 10:34:15;;;;;;;0.47;0.47;;;19.60;75.50;;;;;;5074684;28;20037;-59
2021/05/10 10:36:49;;;;;;;0.30;0.30;;;19.60;75.20;;;;;;5069297;28;20049;-59
2021/05/10 10:39:22;;;;;;;0.30;0.30;;;19.60;74.80;;;;;;5075429;28;20099;-59
2021/05/10 10:42:20;;;;;;;1.25;0.75;;;19.50;75.20;;;;;;5075184;28;20039;-59
2021/05/10 10:44:59;;;;;;;0.40;0.40;;;19.50;75.10;;;;;;5072873;28;20051;-59
2021/05/10 10:47:50;;;;;;;0.43;0.43;;;19.50;75.40;;;;;;5074314;28;20118;-58
2021/05/10 10:50:24;;;;;;;1.20;0.93;;;19.50;75.20;;;;;;5067669;28;20056;-59
2021/05/10 10:52:56;;;;;;;0.60;0.60;;;19.50;75.60;;;;;;5074551;28;20495;-59
2021/05/10 10:55:27;;;;;;;2.17;0.47;;;19.50;74.90;;;;;;5073151;28;20499;-59
2021/05/10 10:58:14;;;;;;;0.70;0.57;;;19.50;75.00;;;;;;5073645;28;20032;-59
2021/05/10 11:01:02;;;;;;;0.40;0.40;;;19.50;74.80;;;;;;5072872;28;20025;-59
2021/05/10 11:03:29;;;;;;;0.50;0.50;;;19.50;74.90;;;;;;5073444;28;20036;-59
2021/05/10 11:05:55;;;;;;;0.40;0.40;;;19.50;74.70;;;;;;5072980;28;20057;-59
2021/05/10 11:08:39;;;;;;;0.57;0.57;;;19.50;74.50;;;;;;5072161;28;20037;-59
2021/05/10 11:11:05;;;;;;;;;;;19.50;74.90;;;;;;5073873;28;20028;-59
2021/05/10 11:13:39;;;;;;;0.52;0.52;;;19.40;74.90;;;;;;5065471;28;19908;-59
2021/05/10 11:16:20;;;;;;;0.70;0.70;;;19.40;75.00;;;;;;5070888;28;20052;-59
2021/05/10 11:18:53;;;;;;;0.55;0.55;;;19.50;75.40;;;;;;5072755;28;20108;-59
2021/05/10 11:21:22;;;;;;;0.82;0.70;;;19.40;75.30;;;;;;5073028;28;20454;-59
2021/05/10 11:23:59;;;;;;;0.50;0.50;;;19.40;75.40;;;;;;5073206;28;20379;-59
2021/05/10 11:26:46;;;;;;;0.60;0.60;;;19.40;75.20;;;;;;5073584;28;20101;-59
2021/05/10 11:29:34;;;;;;;2.60;0.55;;;19.50;75.40;;;;;;5069506;28;20056;-59
2021/05/10 11:32:08;;;;;;;0.40;0.40;;;19.50;75.60;;;;;;5072936;28;20062;-59
2021/05/10 11:34:37;;;;;;;1.75;0.55;;;19.50;75.40;;;;;;5073493;28;20399;-59
2021/05/10 11:37:05;;;;;;;1.25;0.68;;;19.40;75.40;;;;;;5072722;28;20033;-59
2021/05/10 11:39:36;;;;;;;0.70;0.70;;;19.40;75.70;;;;;;5073336;28;20050;-59
2021/05/10 11:42:07;;;;;;;3.17;0.80;;;19.40;75.90;;;;;;5072994;28;20460;-58
2021/05/10 11:44:37;;;;;;;1.52;0.68;;;19.40;75.60;;;;;;5058301;28;20055;-58
2021/05/10 11:47:09;;;;;;;0.85;0.75;;;19.40;75.60;;;;;;5072392;28;20048;-59
2021/05/10 11:49:40;;;;;;;0.82;0.82;;;19.30;75.80;;;;;;5070313;28;20086;-59
2021/05/10 11:54:58;;;;;;;2.08;0.85;;;19.30;75.50;;;;;;5089684;27;20363;-58
2021/05/10 11:57:27;;;;;;;1.75;0.93;;;19.20;75.60;;;;;;5085360;28;20028;-58
2021/05/10 12:00:11;;;;;;;1.30;1.05;;;19.20;75.80;;;;;;5081571;28;20518;-59
2021/05/10 12:02:41;;;;;;;1.20;1.10;;;19.20;76.20;;;;;;5088091;28;20437;-58
2021/05/10 12:05:11;;;;;;;0.85;0.85;;;19.20;76.70;;;;;;5080080;28;20036;-59
2021/05/10 12:07:38;;;;;;;1.38;0.88;;;19.20;75.50;;;;;;5087572;28;20123;-59
2021/05/10 12:10:05;;;;;;;0.55;0.55;;;19.10;75.60;;;;;;5089404;28;20478;-59
2021/05/10 12:12:35;;;;;;;3.80;1.20;;;19.10;76.00;;;;;;5088566;28;20033;-59
2021/05/10 12:15:09;;;;;;;1.23;0.80;;;19.20;75.80;;;;;;5082222;28;20037;-59
2021/05/10 12:17:36;;;;;;;0.52;0.52;;;19.10;75.30;;;;;;5086154;28;20021;-59
2021/05/10 12:20:14;;;;;;;0.73;0.73;;;19.20;74.90;;;;;;5078962;28;20043;-59
2021/05/10 12:22:48;;;;;;;0.57;0.57;;;19.20;74.90;;;;;;5082577;28;20024;-59
2021/05/10 12:25:18;;;;;;;0.45;0.45;;;19.20;75.10;;;;;;5079537;28;20028;-59
2021/05/10 12:28:24;;;;;;;1.35;1.00;;;19.20;74.90;;;;;;5082672;28;20046;-60
2021/05/10 12:30:51;;;;;;;4.15;1.20;;;19.30;75.00;;;;;;5069505;28;20111;-59
2021/05/10 12:33:26;;;;;;;1.10;0.70;;;19.30;74.10;;;;;;5080330;28;20048;-58
2021/05/10 12:35:55;;;;;;;1.55;0.98;;;19.20;74.20;;;;;;5086122;28;20201;-59
2021/05/10 12:38:37;;;;;;;2.83;0.95;;;19.20;74.60;;;;;;5088636;28;20029;-59
2021/05/10 12:41:08;;;;;;;3.03;0.70;;;19.20;74.00;;;;;;5075379;28;20036;-59
2021/05/10 12:43:47;;;;;;;2.78;1.05;;;19.20;73.70;;;;;;5069441;28;20043;-59
2021/05/10 12:46:13;;;;;;;1.80;0.50;;;19.20;73.60;;;;;;5068890;28;20455;-59
2021/05/10 12:48:45;;;;;;;1.73;0.95;;;19.20;73.70;;;;;;5070193;28;20119;-58
2021/05/10 12:51:24;;;;;;;1.52;0.88;;;19.20;72.70;;;;;;5072717;28;20111;-59
2021/05/10 12:54:00;;;;;;;0.95;0.50;;;19.20;72.10;;;;;;5068487;28;20138;-59
2021/05/10 12:56:27;;;;;;;1.17;0.85;;;19.10;71.30;;;;;;5068738;28;20025;-58
2021/05/10 12:58:53;;;;;;;4.32;1.27;;;19.10;71.40;;;;;;5070923;28;20055;-59